Time;durP1;ratioP1;P1;durP2;ratioP2;P2;SDS_P1;SDS_P2;PMS_P1;PMS_P2;Temp;Humidity;BMP_temperature;BMP_pressure;BME280_temperature;BME280_humidity;BME280_pressure;Samples;Min_cycle;Max_cycle;Signal;HPM_P1;HPM_P2
2023/04/11 00:00:53;;;;;;;;;;;7.10;99.90;;;;;;5000089;28;206687;-68
2023/04/11 00:03:19;;;;;;;;;;;7.10;99.90;;;;;;5058377;28;19970;-69
2023/04/11 00:05:45;;;;;;;;;;;7.00;99.90;;;;;;4978983;28;207169;-68
2023/04/11 00:08:11;;;;;;;;;;;7.00;99.90;;;;;;5047837;28;19921;-69
2023/04/11 00:10:37;;;;;;;;;;;7.00;99.90;;;;;;5008865;28;207098;-69
2023/04/11 00:13:03;;;;;;;;;;;7.00;99.90;;;;;;5067448;28;20451;-68
2023/04/11 00:15:31;;;;;;;;;;;7.00;99.90;;;;;;4983140;28;206632;-67
2023/04/11 00:17:57;;;;;;;;;;;7.00;99.90;;;;;;5067995;28;19951;-68
2023/04/11 00:20:23;;;;;;;;;;;6.90;99.90;;;;;;5002040;28;208862;-68
2023/04/11 00:22:52;;;;;;;;;;;6.90;99.90;;;;;;5056086;28;19982;-68
2023/04/11 00:25:18;;;;;;;;;;;6.90;99.90;;;;;;5004172;28;222008;-67
2023/04/11 00:27:44;;;;;;;;;;;6.90;99.90;;;;;;5069918;28;19924;-68
2023/04/11 00:30:10;;;;;;;;;;;6.80;99.90;;;;;;5000560;28;207263;-67
2023/04/11 00:32:36;;;;;;;;;;;6.80;99.90;;;;;;5057074;28;20408;-67
2023/04/11 00:35:02;;;;;;;;;;;6.80;99.90;;;;;;5008336;28;208110;-68
2023/04/11 00:37:28;;;;;;;;;;;6.70;99.90;;;;;;5058391;28;20011;-67
2023/04/11 00:39:54;;;;;;;;;;;6.70;99.90;;;;;;4998298;28;214739;-67
2023/04/11 00:42:20;;;;;;;;;;;6.70;99.90;;;;;;5059153;28;19931;-67
2023/04/11 00:44:46;;;;;;;;;;;6.70;99.90;;;;;;5016369;28;207313;-68
2023/04/11 00:47:12;;;;;;;;;;;6.70;99.90;;;;;;5002664;28;186086;-67
2023/04/11 00:49:38;;;;;;;;;;;6.80;99.90;;;;;;5046599;28;19928;-67
2023/04/11 00:52:05;;;;;;;;;;;6.70;99.90;;;;;;5000345;28;205128;-67
2023/04/11 00:54:31;;;;;;;;;;;6.70;99.90;;;;;;5046824;28;19935;-68
2023/04/11 00:56:58;;;;;;;;;;;6.80;99.90;;;;;;4980894;28;211905;-68
2023/04/11 00:59:25;;;;;;;;;;;6.80;99.90;;;;;;5049655;28;19924;-66
2023/04/11 01:01:51;;;;;;;;;;;6.80;99.90;;;;;;5013533;28;208548;-67
2023/04/11 01:04:17;;;;;;;;;;;6.80;99.90;;;;;;5045703;28;19943;-66
2023/04/11 01:06:46;;;;;;;;;;;6.80;99.90;;;;;;4978545;28;246943;-66
2023/04/11 01:09:12;;;;;;;;;;;6.80;99.90;;;;;;5050310;28;19928;-67
2023/04/11 01:11:38;;;;;;;;;;;6.80;99.90;;;;;;4986638;28;207949;-67
2023/04/11 01:14:04;;;;;;;;;;;6.90;99.90;;;;;;5055670;28;20358;-67
2023/04/11 01:16:30;;;;;;;;;;;6.90;99.90;;;;;;5005064;28;208482;-66
2023/04/11 01:18:56;;;;;;;;;;;6.90;99.90;;;;;;5054674;28;19928;-67
2023/04/11 01:21:22;;;;;;;;;;;6.90;99.90;;;;;;4998955;28;215526;-67
2023/04/11 01:23:51;;;;;;;;;;;7.00;99.90;;;;;;5051287;28;19933;-68
2023/04/11 01:26:17;;;;;;;;;;;6.90;99.90;;;;;;4974986;28;208282;-67
2023/04/11 01:28:43;;;;;;;;;;;6.90;99.90;;;;;;5036807;28;19929;-67
2023/04/11 01:31:09;;;;;;;;;;;6.90;99.90;;;;;;4992089;28;221006;-66
2023/04/11 01:33:35;;;;;;;;;;;6.90;99.90;;;;;;5045243;28;19934;-67
2023/04/11 01:36:01;;;;;;;;;;;6.80;99.90;;;;;;4988335;28;211759;-68
2023/04/11 01:38:26;;;;;;;;;;;6.80;99.90;;;;;;5036866;28;19929;-68
2023/04/11 01:40:53;;;;;;;;;;;6.80;99.90;;;;;;4979003;28;215802;-68
2023/04/11 01:43:19;;;;;;;;;;;6.80;99.90;;;;;;5051889;28;20391;-67
2023/04/11 01:45:45;;;;;;;;;;;6.80;99.90;;;;;;5003099;28;209084;-67
2023/04/11 01:48:13;;;;;;;;;;;6.90;99.90;;;;;;5041399;28;20311;-67
2023/04/11 01:50:40;;;;;;;;;;;6.90;99.90;;;;;;4981112;28;207307;-68
2023/04/11 01:53:06;;;;;;;;;;;6.90;99.90;;;;;;5046341;28;20455;-68
2023/04/11 01:55:32;;;;;;;;;;;7.00;99.90;;;;;;4996911;28;209980;-67
2023/04/11 01:57:58;;;;;;;;;;;7.00;99.90;;;;;;5055175;28;19935;-67
2023/04/11 02:00:23;;;;;;;;;;;7.00;99.90;;;;;;4999955;28;209076;-67
2023/04/11 02:02:49;;;;;;;;;;;7.00;99.90;;;;;;5053399;28;19940;-67
2023/04/11 02:05:15;;;;;;;;;;;7.10;99.90;;;;;;4966078;28;216878;-68
2023/04/11 02:07:41;;;;;;;;;;;7.10;99.90;;;;;;5029635;28;19932;-67
2023/04/11 02:10:07;;;;;;;;;;;7.10;99.90;;;;;;4988890;28;212722;-67
2023/04/11 02:12:33;;;;;;;;;;;7.10;99.90;;;;;;5034364;28;19940;-66
2023/04/11 02:14:59;;;;;;;;;;;7.10;99.90;;;;;;4992380;28;208613;-67
2023/04/11 02:17:29;;;;;;;;;;;7.20;99.90;;;;;;5031758;28;19934;-69
2023/04/11 02:19:56;;;;;;;;;;;7.20;99.90;;;;;;4985542;28;207830;-67
2023/04/11 02:22:22;;;;;;;;;;;7.20;99.90;;;;;;5035545;28;19928;-69
2023/04/11 02:24:50;;;;;;;;;;;7.20;99.90;;;;;;5008054;28;212123;-69
2023/04/11 02:27:15;;;;;;;;;;;7.10;99.90;;;;;;5024280;28;19925;-70
2023/04/11 02:29:41;;;;;;;;;;;7.10;99.90;;;;;;5049071;28;19931;-69
2023/04/11 02:32:07;;;;;;;;;;;7.10;99.90;;;;;;4991421;28;208477;-70
2023/04/11 02:34:33;;;;;;;;;;;7.00;99.90;;;;;;5044165;28;19928;-69
2023/04/11 02:36:59;;;;;;;;;;;6.90;99.90;;;;;;4986574;28;208141;-69
2023/04/11 02:39:25;;;;;;;;;;;6.90;99.90;;;;;;5046035;28;19935;-69
2023/04/11 02:41:51;;;;;;;;;;;6.90;99.90;;;;;;5007876;28;207133;-69
2023/04/11 02:44:17;;;;;;;;;;;6.80;99.90;;;;;;5046462;28;19940;-69
2023/04/11 02:46:43;;;;;;;;;;;6.80;99.90;;;;;;4972142;28;214226;-70
2023/04/11 02:49:09;;;;;;;;;;;6.90;99.90;;;;;;5040434;28;20297;-69
2023/04/11 02:51:35;;;;;;;;;;;6.90;99.90;;;;;;4972443;28;210277;-71
2023/04/11 02:54:01;;;;;;;;;;;6.90;99.90;;;;;;5041224;28;19929;-70
2023/04/11 02:56:29;;;;;;;;;;;6.90;99.90;;;;;;5000905;28;206862;-69
2023/04/11 02:58:55;;;;;;;;;;;6.80;99.90;;;;;;5055407;28;19927;-67
2023/04/11 03:01:23;;;;;;;;;;;6.80;99.90;;;;;;4975658;28;207826;-70
2023/04/11 03:03:49;;;;;;;;;;;6.90;99.90;;;;;;5038470;28;19936;-68
2023/04/11 03:06:15;;;;;;;;;;;6.80;99.90;;;;;;4974525;28;224423;-68
2023/04/11 03:08:41;;;;;;;;;;;6.90;99.90;;;;;;5040764;28;19936;-68
2023/04/11 03:11:07;;;;;;;;;;;6.90;99.90;;;;;;4983874;28;207668;-69
2023/04/11 03:13:35;;;;;;;;;;;6.90;99.90;;;;;;5040067;28;19928;-68
2023/04/11 03:16:02;;;;;;;;;;;6.90;99.90;;;;;;4988539;28;192744;-68
2023/04/11 03:18:28;;;;;;;;;;;6.90;99.90;;;;;;5057886;28;19924;-68
2023/04/11 03:20:54;;;;;;;;;;;6.90;99.90;;;;;;4991375;28;206907;-69
2023/04/11 03:23:20;;;;;;;;;;;6.90;99.90;;;;;;5050545;28;20669;-68
2023/04/11 03:25:47;;;;;;;;;;;6.80;99.90;;;;;;4985988;28;213524;-67
2023/04/11 03:28:13;;;;;;;;;;;6.90;99.90;;;;;;5043928;28;20407;-68
2023/04/11 03:30:41;;;;;;;;;;;6.90;99.90;;;;;;4980246;28;208462;-68
2023/04/11 03:33:07;;;;;;;;;;;6.90;99.90;;;;;;5037278;28;19940;-67
2023/04/11 03:35:33;;;;;;;;;;;6.90;99.90;;;;;;4983246;28;206942;-67
2023/04/11 03:37:59;;;;;;;;;;;6.90;99.90;;;;;;5014016;28;19924;-67
2023/04/11 03:40:25;;;;;;;;;;;6.80;99.90;;;;;;4988051;28;216248;-68
2023/04/11 03:42:50;;;;;;;;;;;6.90;99.90;;;;;;5046505;28;19924;-67
2023/04/11 03:45:17;;;;;;;;;;;6.90;99.90;;;;;;4989159;28;206246;-68
2023/04/11 03:47:43;;;;;;;;;;;6.90;99.90;;;;;;5044192;28;19928;-69
2023/04/11 03:50:09;;;;;;;;;;;6.90;99.90;;;;;;4981816;28;207870;-67
2023/04/11 03:52:35;;;;;;;;;;;7.00;99.90;;;;;;5041553;28;19928;-67
2023/04/11 03:55:01;;;;;;;;;;;7.00;99.90;;;;;;4981198;28;206160;-68
2023/04/11 03:57:27;;;;;;;;;;;7.10;99.90;;;;;;5035947;28;22494;-67
2023/04/11 03:59:56;;;;;;;;;;;7.10;99.90;;;;;;4995384;28;208337;-67
2023/04/11 04:02:22;;;;;;;;;;;7.20;99.90;;;;;;5058508;28;19931;-67
2023/04/11 04:04:57;;;;;;;;;;;7.20;99.90;;;;;;5016883;28;211971;-67
2023/04/11 04:07:23;;;;;;;;;;;7.10;99.90;;;;;;5002199;28;20132;-67
2023/04/11 04:09:50;;;;;;;;;;;7.30;99.90;;;;;;5005807;28;208830;-67
2023/04/11 04:12:16;;;;;;;;;;;7.30;99.90;;;;;;5050746;28;19929;-67
2023/04/11 04:14:42;;;;;;;;;;;7.30;99.90;;;;;;5048327;28;19924;-67
2023/04/11 04:17:08;;;;;;;;;;;7.30;99.90;;;;;;5011673;28;206474;-67
2023/04/11 04:19:34;;;;;;;;;;;7.40;99.90;;;;;;5047954;28;19928;-67
2023/04/11 04:22:00;;;;;;;;;;;7.40;99.90;;;;;;4972315;28;207935;-67
2023/04/11 04:24:26;;;;;;;;;;;7.40;99.90;;;;;;5063565;28;19928;-68
2023/04/11 04:26:52;;;;;;;;;;;7.50;99.90;;;;;;4995258;28;208236;-68
2023/04/11 04:29:18;;;;;;;;;;;7.40;99.90;;;;;;5049272;28;19924;-68
2023/04/11 04:31:49;;;;;;;;;;;7.50;99.90;;;;;;5012904;28;209833;-66
2023/04/11 04:34:20;;;;;;;;;;;7.50;99.90;;;;;;5049086;28;20695;-67
2023/04/11 04:36:46;;;;;;;;;;;7.50;99.90;;;;;;4973002;28;224028;-68
2023/04/11 04:39:16;;;;;;;;;;;7.40;99.90;;;;;;5047500;28;20665;-68
2023/04/11 04:41:47;;;;;;;;;;;7.40;99.90;;;;;;4977823;28;210930;-68
2023/04/11 04:44:14;;;;;;;;;;;7.40;99.90;;;;;;5048860;28;19925;-69
2023/04/11 04:46:41;;;;;;;;;;;7.50;99.90;;;;;;5001453;28;211463;-67
2023/04/11 04:49:07;;;;;;;;;;;7.40;99.90;;;;;;5044542;28;19947;-68
2023/04/11 04:51:34;;;;;;;;;;;7.30;99.90;;;;;;4978185;28;207627;-68
2023/04/11 04:54:00;;;;;;;;;;;7.40;99.90;;;;;;5042505;28;19932;-68
2023/04/11 04:56:29;;;;;;;;;;;7.40;99.90;;;;;;4994784;28;181215;-69
2023/04/11 04:58:55;;;;;;;;;;;7.40;99.90;;;;;;5044747;28;20412;-68
2023/04/11 05:01:25;;;;;;;;;;;7.40;99.90;;;;;;4986889;28;204840;-69
2023/04/11 05:03:58;;;;;;;;;;;7.40;99.90;;;;;;5042314;28;20041;-68
2023/04/11 05:06:28;;;;;;;;;;;7.40;99.90;;;;;;4967465;28;209150;-68
2023/04/11 05:09:00;;;;;;;;;;;7.40;99.90;;;;;;5058831;28;20313;-69
2023/04/11 05:11:27;;;;;;;;;;;7.40;99.90;;;;;;4983193;28;206710;-68
2023/04/11 05:13:53;;;;;;;;;;;7.40;99.90;;;;;;5042735;28;19935;-68
2023/04/11 05:16:19;;;;;;;;;;;7.40;99.90;;;;;;4990539;28;162188;-68
2023/04/11 05:18:45;;;;;;;;;;;7.40;99.90;;;;;;5047204;28;20396;-68
2023/04/11 05:21:11;;;;;;;;;;;7.40;99.90;;;;;;4997490;28;207602;-68
2023/04/11 05:23:38;;;;;;;;;;;7.40;99.90;;;;;;5058258;28;19940;-68
2023/04/11 05:26:04;;;;;;;;;;;7.40;99.90;;;;;;5015489;28;209189;-68
2023/04/11 05:28:31;;;;;;;;;;;7.30;99.90;;;;;;5063793;28;20024;-69
2023/04/11 05:30:57;;;;;;;;;;;7.30;99.90;;;;;;5011500;28;209539;-68
2023/04/11 05:33:23;;;;;;;;;;;7.30;99.90;;;;;;5055131;28;19924;-68
2023/04/11 05:35:52;;;;;;;;;;;7.30;99.90;;;;;;4999013;28;207432;-69
2023/04/11 05:38:18;;;;;;;;;;;7.30;99.90;;;;;;5060245;28;20389;-70
2023/04/11 05:40:44;;;;;;;;;;;7.20;99.90;;;;;;5007051;28;205929;-69
2023/04/11 05:43:13;;;;;;;;;;;7.20;99.90;;;;;;5068515;28;19968;-69
2023/04/11 05:45:46;;;;;;;;;;;7.20;99.90;;;;;;5002397;28;209669;-69
2023/04/11 05:48:12;;;;;;;;;;;7.20;99.90;;;;;;5048118;28;20308;-69
2023/04/11 05:50:38;;;;;;;;;;;7.20;99.90;;;;;;4998509;28;207349;-69
2023/04/11 05:53:04;;;;;;;;;;;7.20;99.90;;;;;;5050457;28;19929;-69
2023/04/11 05:55:30;;;;;;;;;;;7.20;99.90;;;;;;4998351;28;207316;-69
2023/04/11 05:57:56;;;;;;;;;;;7.20;99.90;;;;;;5037759;28;19924;-69
2023/04/11 06:00:23;;;;;;;;;;;7.30;99.90;;;;;;4995722;28;207444;-67
2023/04/11 06:02:49;;;;;;;;;;;7.30;99.90;;;;;;5038669;28;19932;-69
2023/04/11 06:05:16;;;;;;;;;;;7.30;99.90;;;;;;4985646;28;207294;-69
2023/04/11 06:07:43;;;;;;;;;;;7.40;99.90;;;;;;5060676;28;19920;-69
2023/04/11 06:10:09;;;;;;;;;;;7.40;99.90;;;;;;5013656;28;206420;-69
2023/04/11 06:12:35;;;;;;;;;;;7.40;99.90;;;;;;5061011;28;19920;-68
2023/04/11 06:15:01;;;;;;;;;;;7.50;99.90;;;;;;5004562;28;207898;-68
2023/04/11 06:17:27;;;;;;;;;;;7.50;99.90;;;;;;5071446;28;19924;-68
2023/04/11 06:19:53;;;;;;;;;;;7.50;99.90;;;;;;5002631;28;209169;-69
2023/04/11 06:22:18;;;;;;;;;;;7.50;99.90;;;;;;5059490;28;20027;-67
2023/04/11 06:24:44;;;;;;;;;;;7.50;99.90;;;;;;5042324;28;208626;-68
2023/04/11 06:27:10;;;;;;;;;;;7.50;99.90;;;;;;5041364;28;151168;-69
2023/04/11 06:29:36;;;;;;;;;;;7.50;99.90;;;;;;5060402;28;20708;-68
2023/04/11 06:32:02;;;;;;;;;;;7.40;99.90;;;;;;4980701;28;224234;-67
2023/04/11 06:34:28;;;;;;;;;;;7.40;99.90;;;;;;5062617;28;19924;-68
2023/04/11 06:36:54;;;;;;;;;;;7.40;99.90;;;;;;5001470;28;207562;-70
2023/04/11 06:39:20;;;;;;;;;;;7.50;99.90;;;;;;5062866;28;20474;-70
2023/04/11 06:41:47;;;;;;;;;;;7.50;99.90;;;;;;5020211;28;207428;-69
2023/04/11 06:44:12;;;;;;;;;;;7.60;99.90;;;;;;5060281;28;19924;-69
2023/04/11 06:46:39;;;;;;;;;;;7.70;99.90;;;;;;4983208;28;206486;-70
2023/04/11 06:49:06;;;;;;;;;;;7.70;99.90;;;;;;5062195;28;20341;-69
2023/04/11 06:51:32;;;;;;;;;;;7.70;99.90;;;;;;5014816;28;207060;-70
2023/04/11 06:53:58;;;;;;;;;;;7.70;99.90;;;;;;5055757;28;19928;-70
2023/04/11 06:56:24;;;;;;;;;;;7.70;99.90;;;;;;5020052;28;205827;-70
2023/04/11 06:58:50;;;;;;;;;;;7.70;99.90;;;;;;5061642;28;19932;-68
2023/04/11 07:01:19;;;;;;;;;;;7.70;99.90;;;;;;5006709;28;204504;-71
2023/04/11 07:03:48;;;;;;;;;;;7.70;99.90;;;;;;5061622;28;20321;-69
2023/04/11 07:06:15;;;;;;;;;;;7.80;99.90;;;;;;4982395;28;211223;-69
2023/04/11 07:08:41;;;;;;;;;;;7.90;99.90;;;;;;5055085;28;20305;-70
2023/04/11 07:11:07;;;;;;;;;;;7.90;99.90;;;;;;5007647;28;219272;-70
2023/04/11 07:13:32;;;;;;;;;;;8.00;99.90;;;;;;5060622;28;19934;-69
2023/04/11 07:15:58;;;;;;;;;;;8.10;99.90;;;;;;5013153;28;210232;-70
2023/04/11 07:18:26;;;;;;;;;;;8.20;99.90;;;;;;5066038;28;19920;-70
2023/04/11 07:20:52;;;;;;;;;;;8.30;99.90;;;;;;4997967;28;211802;-70
2023/04/11 07:23:18;;;;;;;;;;;8.40;99.90;;;;;;5061627;28;19929;-70
2023/04/11 07:25:44;;;;;;;;;;;8.50;99.90;;;;;;5004451;28;207326;-69
2023/04/11 07:28:10;;;;;;;;;;;8.40;99.90;;;;;;5063659;28;19966;-69
2023/04/11 07:30:36;;;;;;;;;;;8.40;99.90;;;;;;5012649;28;206925;-70
2023/04/11 07:33:02;;;;;;;;;;;8.40;99.90;;;;;;5062620;28;19969;-69
2023/04/11 07:35:28;;;;;;;;;;;8.40;99.90;;;;;;5009386;28;210656;-68
2023/04/11 07:37:56;;;;;;;;;;;8.40;99.90;;;;;;5067813;28;19939;-69
2023/04/11 07:40:22;;;;;;;;;;;8.40;99.90;;;;;;5012244;28;208538;-70
2023/04/11 07:42:48;;;;;;;;;;;8.60;99.90;;;;;;5061300;28;20583;-69
2023/04/11 07:45:14;;;;;;;;;;;8.60;99.90;;;;;;5003286;28;215419;-70
2023/04/11 07:47:40;;;;;;;;;;;8.50;99.90;;;;;;5074674;28;19928;-69
2023/04/11 07:50:06;;;;;;;;;;;8.50;99.90;;;;;;5006797;28;207490;-69
2023/04/11 07:52:32;;;;;;;;;;;8.60;99.90;;;;;;5055435;28;19921;-70
2023/04/11 07:54:58;;;;;;;;;;;8.60;99.90;;;;;;5006314;28;214246;-69
2023/04/11 07:57:24;;;;;;;;;;;8.70;99.90;;;;;;5058190;28;19931;-70
2023/04/11 07:59:49;;;;;;;;;;;8.80;99.90;;;;;;5019424;28;207791;-68
2023/04/11 08:02:15;;;;;;;;;;;8.90;99.90;;;;;;5070094;28;19943;-69
2023/04/11 08:04:41;;;;;;;;;;;8.80;99.90;;;;;;5064549;28;19931;-70
2023/04/11 08:07:07;;;;;;;;;;;8.80;99.90;;;;;;4980491;28;224404;-68
2023/04/11 08:09:33;;;;;;;;;;;8.80;99.90;;;;;;5068023;28;19921;-68
2023/04/11 08:12:00;;;;;;;;;;;9.10;99.90;;;;;;4998532;28;206378;-69
2023/04/11 08:14:26;;;;;;;;;;;9.00;99.90;;;;;;5066846;28;19928;-70
2023/04/11 08:16:52;;;;;;;;;;;9.00;99.90;;;;;;5029475;28;208068;-72
2023/04/11 08:19:18;;;;;;;;;;;9.10;99.90;;;;;;5062695;28;19974;-69
2023/04/11 08:21:44;;;;;;;;;;;9.20;99.90;;;;;;4989554;28;220599;-70
2023/04/11 08:24:10;;;;;;;;;;;9.60;99.90;;;;;;5059918;28;19924;-72
2023/04/11 08:26:36;;;;;;;;;;;9.10;99.90;;;;;;5016257;28;209415;-68
2023/04/11 08:29:02;;;;;;;;;;;8.70;99.90;;;;;;5066337;28;19931;-69
2023/04/11 08:31:28;;;;;;;;;;;8.50;99.90;;;;;;5010140;28;215716;-69
2023/04/11 08:33:54;;;;;;;;;;;8.30;99.90;;;;;;5064915;28;19920;-69
2023/04/11 08:36:20;;;;;;;;;;;8.20;99.90;;;;;;5006876;28;205996;-68
2023/04/11 08:38:46;;;;;;;;;;;8.10;99.90;;;;;;5066133;28;19921;-70
2023/04/11 08:41:13;;;;;;;;;;;8.00;99.90;;;;;;5026039;28;207135;-68
2023/04/11 08:43:39;;;;;;;;;;;8.00;99.90;;;;;;5067750;28;19931;-68
2023/04/11 08:46:08;;;;;;;;;;;8.10;99.90;;;;;;5017781;28;206986;-69
2023/04/11 08:48:34;;;;;;;;;;;8.10;99.90;;;;;;5062281;28;20006;-68
2023/04/11 08:51:00;;;;;;;;;;;8.00;99.90;;;;;;5018146;28;212876;-67
2023/04/11 08:53:28;;;;;;;;;;;8.00;99.90;;;;;;5064971;28;20377;-68
2023/04/11 08:55:53;;;;;;;;;;;8.40;99.90;;;;;;5014940;28;209676;-70
2023/04/11 08:58:19;;;;;;;;;;;9.30;99.90;;;;;;5069214;28;19954;-69
2023/04/11 09:00:45;;;;;;;;;;;10.00;99.90;;;;;;5018149;28;209637;-68
2023/04/11 09:03:15;;;;;;;;;;;10.40;99.90;;;;;;5066909;28;19924;-68
2023/04/11 09:05:42;;;;;;;;;;;10.20;99.90;;;;;;4985464;28;211135;-68
2023/04/11 09:08:10;;;;;;;;;;;9.70;99.90;;;;;;5049929;28;20355;-68
2023/04/11 09:10:36;;;;;;;;;;;9.40;99.90;;;;;;5012587;28;207408;-68
2023/04/11 09:13:17;;;;;;;;;;;9.10;99.90;;;;;;5063173;28;20300;-68
2023/04/11 09:15:42;;;;;;;;;;;9.90;99.90;;;;;;5015714;28;208069;-67
2023/04/11 09:18:08;;;;;;;;;;;10.50;99.90;;;;;;5061846;28;19947;-69
2023/04/11 09:20:34;;;;;;;;;;;11.20;99.90;;;;;;5005252;28;207588;-69
2023/04/11 09:23:00;;;;;;;;;;;11.10;99.90;;;;;;5062881;28;19947;-69
2023/04/11 09:25:26;;;;;;;;;;;11.20;99.90;;;;;;5022896;28;207462;-69
2023/04/11 09:28:09;;;;;;;;;;;11.50;99.90;;;;;;5066369;28;19986;-68
2023/04/11 09:30:35;;;;;;;;;;;11.10;99.90;;;;;;4996460;28;243924;-68
2023/04/11 09:33:16;;;;;;;;;;;11.80;99.90;;;;;;5052375;28;19921;-67
2023/04/11 09:35:42;;;;;;;;;;;12.20;99.90;;;;;;5017283;28;208428;-68
2023/04/11 09:38:08;;;;;;;;;;;11.20;99.90;;;;;;5066033;28;19920;-68
2023/04/11 09:40:40;;;;;;;;;;;10.50;99.90;;;;;;5007568;28;208947;-68
2023/04/11 09:43:06;;;;;;;;;;;10.40;99.90;;;;;;5062209;28;19920;-69
2023/04/11 09:45:32;;;;;;;;;;;10.50;99.90;;;;;;5001963;28;208912;-68
2023/04/11 09:47:58;;;;;;;;;;;10.20;99.90;;;;;;5073159;28;19932;-69
2023/04/11 09:50:25;;;;;;;;;;;10.00;99.90;;;;;;5013440;28;208320;-67
2023/04/11 09:52:57;;;;;;;;;;;9.80;99.90;;;;;;5068125;28;19928;-69
2023/04/11 09:55:23;;;;;;;;;;;9.80;99.90;;;;;;5014866;28;209771;-68
2023/04/11 09:57:50;;;;;;;;;;;9.90;99.90;;;;;;5064023;28;19929;-68
2023/04/11 10:00:18;;;;;;;;;;;9.80;99.90;;;;;;5012295;28;217044;-68
2023/04/11 10:02:45;;;;;;;;;;;9.60;99.90;;;;;;5073310;28;21161;-68
2023/04/11 10:05:12;;;;;;;;;;;9.40;99.90;;;;;;4991577;28;207642;-69
2023/04/11 10:07:51;;;;;;;;;;;10.20;99.90;;;;;;5035981;28;19920;-67
2023/04/11 10:10:20;;;;;;;;;;;11.30;99.90;;;;;;5004072;28;210059;-69
2023/04/11 10:12:47;;;;;;;;;;;12.30;99.90;;;;;;5055274;28;19927;-68
2023/04/11 10:15:13;;;;;;;;;;;12.60;99.90;;;;;;5015736;28;208931;-69
2023/04/11 10:17:39;;;;;;;;;;;13.20;99.90;;;;;;5063153;28;20389;-69
2023/04/11 10:20:41;;;;;;;;;;;13.70;99.90;;;;;;5015772;28;206839;-69
2023/04/11 10:23:07;;;;;;;;;;;12.90;99.90;;;;;;5058993;28;19935;-67
2023/04/11 10:25:52;;;;;;;;;;;12.40;99.90;;;;;;5014221;28;207803;-68
2023/04/11 10:28:28;;;;;;;;;;;11.80;99.90;;;;;;5059342;28;19921;-66
2023/04/11 10:30:57;;;;;;;;;;;11.20;99.90;;;;;;5016303;28;207454;-68
2023/04/11 10:33:25;;;;;;;;;;;10.60;99.90;;;;;;5069417;28;19924;-69
2023/04/11 10:36:01;;;;;;;;;;;10.50;99.90;;;;;;5014560;28;217092;-69
2023/04/11 10:38:39;;;;;;;;;;;10.60;99.90;;;;;;5046394;28;19947;-68
2023/04/11 10:44:11;;;;;;;;;;;12.00;99.90;;;;;;5062441;28;19927;-68
2023/04/11 10:46:43;;;;;;;;;;;12.80;99.90;;;;;;5004728;28;201468;-67
2023/04/11 10:49:09;;;;;;;;;;;12.50;99.90;;;;;;5064628;28;19924;-67
2023/04/11 10:51:35;;;;;;;;;;;12.30;99.90;;;;;;5018455;28;209208;-69
2023/04/11 10:54:01;;;;;;;;;;;12.80;99.90;;;;;;5062552;28;20344;-68
2023/04/11 10:56:39;;;;;;;;;;;12.80;99.50;;;;;;5016185;28;207706;-68
2023/04/11 10:59:04;;;;;;;;;;;13.60;99.60;;;;;;5059850;28;19929;-68
2023/04/11 11:01:31;;;;;;;;;;;13.70;98.20;;;;;;5003256;28;207059;-68
2023/04/11 11:03:57;;;;;;;;;;;13.20;98.40;;;;;;5071646;28;19920;-69
2023/04/11 11:06:23;;;;;;;;;;;12.30;99.90;;;;;;4990995;28;209748;-68
2023/04/11 11:08:49;;;;;;;;;;;12.00;99.80;;;;;;5060692;28;19920;-69
2023/04/11 11:11:15;;;;;;;;;;;11.70;99.90;;;;;;5010105;28;209217;-69
2023/04/11 11:13:51;;;;;;;;;;;11.60;99.90;;;;;;5064536;28;19920;-68
2023/04/11 11:16:21;;;;;;;;;;;12.00;99.90;;;;;;5005426;28;210628;-67
2023/04/11 11:18:51;;;;;;;;;;;11.50;99.90;;;;;;5069494;28;19936;-67
2023/04/11 11:21:23;;;;;;;;;;;11.20;99.90;;;;;;5005958;28;205488;-68
2023/04/11 11:23:59;;;;;;;;;;;11.00;99.90;;;;;;5064599;28;19920;-68
2023/04/11 11:26:41;;;;;;;;;;;10.80;99.90;;;;;;5010038;28;91547;-69
2023/04/11 11:29:07;;;;;;;;;;;11.70;99.90;;;;;;5056874;28;19931;-69
2023/04/11 11:31:40;;;;;;;;;;;12.50;99.90;;;;;;5010252;28;147898;-68
2023/04/11 11:34:10;;;;;;;;;;;13.10;99.90;;;;;;5055773;28;19921;-68
2023/04/11 11:36:39;;;;;;;;;;;13.60;99.90;;;;;;5009193;28;207563;-69
2023/04/11 11:39:05;;;;;;;;;;;13.80;99.90;;;;;;5059648;28;19920;-68
2023/04/11 11:41:33;;;;;;;;;;;12.90;99.30;;;;;;5008988;28;207606;-67
2023/04/11 11:44:00;;;;;;;;;;;12.80;99.90;;;;;;5059991;28;20273;-69
2023/04/11 11:46:29;;;;;;;;;;;13.50;99.90;;;;;;5016268;28;207404;-70
2023/04/11 11:49:06;;;;;;;;;;;13.50;99.70;;;;;;5061247;28;19928;-69
2023/04/11 11:51:39;;;;;;;;;;;13.60;99.60;;;;;;5008872;28;207306;-69
2023/04/11 11:54:08;;;;;;;;;;;14.00;99.20;;;;;;5058885;28;19950;-68
2023/04/11 11:56:38;;;;;;;;;;;13.10;97.50;;;;;;5012525;28;209570;-68
2023/04/11 11:59:04;;;;;;;;;;;12.20;98.50;;;;;;5061477;28;19932;-68
2023/04/11 12:01:31;;;;;;;;;;;12.10;99.20;;;;;;5013959;28;207678;-67
2023/04/11 12:03:57;;;;;;;;;;;11.90;99.60;;;;;;5062672;28;19924;-67
2023/04/11 12:06:27;;;;;;;;;;;11.70;99.90;;;;;;4972006;28;254955;-69
2023/04/11 12:08:59;;;;;;;;;;;11.60;99.90;;;;;;5060703;28;19928;-68
2023/04/11 12:11:25;;;;;;;;;;;11.40;99.90;;;;;;5002770;28;208440;-68
2023/04/11 12:13:51;;;;;;;;;;;11.40;99.90;;;;;;5062535;28;19931;-69
2023/04/11 12:16:20;;;;;;;;;;;11.10;99.90;;;;;;5019422;28;207233;-69
2023/04/11 12:18:46;;;;;;;;;;;11.20;99.90;;;;;;5066720;28;19928;-69
2023/04/11 12:21:12;;;;;;;;;;;11.20;99.90;;;;;;5003144;28;208005;-69
2023/04/11 12:23:38;;;;;;;;;;;11.40;99.90;;;;;;5060842;28;19928;-71
2023/04/11 12:26:04;;;;;;;;;;;11.70;99.90;;;;;;5006762;28;207258;-71
2023/04/11 12:28:30;;;;;;;;;;;11.70;99.70;;;;;;5055070;28;20368;-70
2023/04/11 12:30:56;;;;;;;;;;;11.90;99.90;;;;;;5006890;28;208765;-71
2023/04/11 12:33:22;;;;;;;;;;;12.30;99.80;;;;;;5065378;28;20385;-70
2023/04/11 12:35:47;;;;;;;;;;;13.10;98.60;;;;;;5016109;28;207633;-70
2023/04/11 12:38:13;;;;;;;;;;;12.60;97.90;;;;;;5049079;28;19931;-70
2023/04/11 12:40:40;;;;;;;;;;;12.00;99.70;;;;;;5022199;28;72526;-71
2023/04/11 12:43:05;;;;;;;;;;;11.50;99.10;;;;;;5065335;28;19924;-70
2023/04/11 12:45:32;;;;;;;;;;;11.30;99.70;;;;;;5020230;28;207833;-69
2023/04/11 12:47:58;;;;;;;;;;;11.40;99.90;;;;;;5076984;28;20377;-71
2023/04/11 12:50:24;;;;;;;;;;;11.50;99.90;;;;;;5007889;28;206903;-70
2023/04/11 12:52:50;;;;;;;;;;;11.40;99.30;;;;;;5061329;28;19939;-70
2023/04/11 12:55:15;;;;;;;;;;;11.00;99.80;;;;;;5020416;28;182177;-70
2023/04/11 12:57:42;;;;;;;;;;;10.70;99.90;;;;;;5059265;28;20490;-70
2023/04/11 13:00:12;;;;;;;;;;;10.70;99.90;;;;;;5006389;28;206581;-71
2023/04/11 13:02:38;;;;;;;;;;;10.50;99.90;;;;;;5062440;28;19920;-70
2023/04/11 13:05:05;;;;;;;;;;;10.60;99.90;;;;;;5006099;28;213451;-70
2023/04/11 13:07:33;;;;;;;;;;;10.80;99.90;;;;;;5059838;28;19928;-70
2023/04/11 13:10:00;;;;;;;;;;;11.30;99.90;;;;;;5011320;28;240228;-70
2023/04/11 13:12:27;;;;;;;;;;;11.90;99.70;;;;;;5076818;28;20000;-71
2023/04/11 13:14:53;;;;;;;;;;;12.30;98.80;;;;;;5048523;28;222399;-71
2023/04/11 13:17:19;;;;;;;;;;;12.30;98.40;;;;;;4987097;28;288093;-71
2023/04/11 13:19:45;;;;;;;;;;;12.10;98.60;;;;;;5066273;28;19998;-69
2023/04/11 13:22:11;;;;;;;;;;;11.40;99.20;;;;;;4992081;28;252815;-71
2023/04/11 13:24:37;;;;;;;;;;;11.50;99.70;;;;;;5056132;28;19928;-71
2023/04/11 13:27:02;;;;;;;;;;;11.90;98.90;;;;;;5022589;28;206976;-71
2023/04/11 13:29:28;;;;;;;;;;;12.50;99.30;;;;;;5061246;28;20454;-70
2023/04/11 13:31:54;;;;;;;;;;;12.80;98.60;;;;;;5021371;28;207923;-69
2023/04/11 13:34:20;;;;;;;;;;;12.70;98.50;;;;;;5062424;28;19924;-70
2023/04/11 13:36:46;;;;;;;;;;;12.90;98.30;;;;;;5006963;28;208238;-71
2023/04/11 13:39:12;;;;;;;;;;;13.10;97.60;;;;;;5066229;28;20616;-71
2023/04/11 13:41:38;;;;;;;;;;;13.50;97.30;;;;;;5013731;28;210083;-70
2023/04/11 13:44:04;;;;;;;;;;;13.90;97.00;;;;;;5062589;28;19942;-71
2023/04/11 13:46:30;;;;;;;;;;;13.70;96.60;;;;;;5008353;28;220004;-72
2023/04/11 13:48:57;;;;;;;;;;;13.80;96.60;;;;;;5065038;28;19924;-71
2023/04/11 13:51:23;;;;;;;;;;;13.70;96.30;;;;;;5015549;28;227177;-70
2023/04/11 13:53:49;;;;;;;;;;;13.30;96.60;;;;;;5059792;28;19932;-70
2023/04/11 13:56:15;;;;;;;;;;;12.80;97.30;;;;;;5014471;28;208787;-71
2023/04/11 13:58:41;;;;;;;;;;;13.20;97.20;;;;;;5068470;28;19928;-70
2023/04/11 14:01:07;;;;;;;;;;;13.80;96.20;;;;;;5006974;28;212853;-70
2023/04/11 14:03:32;;;;;;;;;;;13.00;96.00;;;;;;5057250;28;19927;-70
2023/04/11 14:05:59;;;;;;;;;;;12.50;96.20;;;;;;4982335;28;248629;-69
2023/04/11 14:08:26;;;;;;;;;;;12.60;96.50;;;;;;5067735;28;20400;-70
2023/04/11 14:10:52;;;;;;;;;;;13.40;96.80;;;;;;4991114;28;180184;-70
2023/04/11 14:13:19;;;;;;;;;;;14.10;96.50;;;;;;5063965;28;19955;-69
2023/04/11 14:15:45;;;;;;;;;;;14.30;95.50;;;;;;5006834;28;209523;-69
2023/04/11 14:18:11;;;;;;;;;;;13.60;95.80;;;;;;5042568;28;20045;-70
2023/04/11 14:20:37;;;;;;;;;;;12.60;96.50;;;;;;5006417;28;207856;-70